createdAt,value
2023-05-15T00:00:35.056Z,69.65
2023-05-15T00:03:05.715Z,69.82
2023-05-15T00:05:36.579Z,69.73
2023-05-15T00:08:07.531Z,69.67
2023-05-15T00:10:40.876Z,69.63
2023-05-15T00:13:13.796Z,69.66
2023-05-15T00:15:44.810Z,69.77
2023-05-15T00:18:15.585Z,70.08
2023-05-15T00:20:46.673Z,69.92
2023-05-15T00:23:17.563Z,69.98
2023-05-15T00:25:48.542Z,69.62
2023-05-15T00:28:19.472Z,69.93
2023-05-15T00:30:50.580Z,69.80
2023-05-15T00:33:21.521Z,69.67
2023-05-15T00:35:52.305Z,69.66
2023-05-15T00:38:23.214Z,69.46
2023-05-15T00:40:55.309Z,69.39
2023-05-15T00:43:28.930Z,69.38
2023-05-15T00:46:02.473Z,69.28
2023-05-15T00:48:34.713Z,69.28
2023-05-15T00:51:06.614Z,69.28
2023-05-15T00:53:37.635Z,69.16
2023-05-15T00:56:10.896Z,68.72
2023-05-15T00:58:42.566Z,68.91
2023-05-15T01:01:14.172Z,69.00
2023-05-15T01:03:46.317Z,68.95
2023-05-15T01:06:17.325Z,68.69
2023-05-15T01:08:52.874Z,68.70
2023-05-15T01:11:27.729Z,68.81
2023-05-15T01:13:58.598Z,68.66
2023-05-15T01:16:30.189Z,68.29
2023-05-15T01:19:01.278Z,68.69
2023-05-15T01:21:37.920Z,68.17
2023-05-15T01:24:27.080Z,67.95
2023-05-15T01:27:20.977Z,67.46
2023-05-15T01:30:26.558Z,67.21
2023-05-15T01:33:06.352Z,66.39
2023-05-15T01:35:46.928Z,66.13
2023-05-15T01:38:34.200Z,65.70
2023-05-15T01:41:34.454Z,65.10
2023-05-15T01:44:25.596Z,64.32
2023-05-15T01:47:00.808Z,63.90
2023-05-15T01:49:33.989Z,63.66
2023-05-15T01:52:40.276Z,63.76
2023-05-15T01:55:12.899Z,62.25
2023-05-15T01:57:45.657Z,61.98
2023-05-15T02:00:17.668Z,61.62
2023-05-15T02:02:51.126Z,62.56
2023-05-15T02:05:23.293Z,61.23
2023-05-15T02:07:55.059Z,61.02
2023-05-15T02:10:26.630Z,61.61
2023-05-15T02:12:58.233Z,61.57
2023-05-15T02:15:30.669Z,61.44
2023-05-15T02:18:01.655Z,61.75
2023-05-15T02:20:34.315Z,61.83
2023-05-15T02:23:05.361Z,61.76
2023-05-15T02:26:04.281Z,61.41
2023-05-15T02:29:06.203Z,61.23
2023-05-15T02:31:47.510Z,61.13
2023-05-15T02:34:24.017Z,60.76
2023-05-15T02:36:56.373Z,60.41
2023-05-15T02:39:28.631Z,60.53
2023-05-15T02:42:00.935Z,60.48
2023-05-15T02:44:32.867Z,60.01
2023-05-15T02:47:04.655Z,60.05
2023-05-15T02:49:37.147Z,59.69
2023-05-15T02:52:09.569Z,59.67
2023-05-15T02:54:39.995Z,59.77
2023-05-15T02:57:11.157Z,59.34
2023-05-15T02:59:42.191Z,59.16
2023-05-15T03:02:12.842Z,58.91
2023-05-15T03:04:43.955Z,58.88
2023-05-15T03:07:15.079Z,58.87
2023-05-15T03:09:46.433Z,58.37
2023-05-15T03:12:17.476Z,58.47
2023-05-15T03:14:48.732Z,58.23
2023-05-15T03:17:19.896Z,58.09
2023-05-15T03:19:52.005Z,57.78
2023-05-15T03:22:22.830Z,58.18
2023-05-15T03:24:53.723Z,57.66
2023-05-15T03:27:24.870Z,57.66
2023-05-15T03:29:55.872Z,57.73
2023-05-15T03:32:26.641Z,57.54
2023-05-15T03:34:57.462Z,58.11
2023-05-15T03:37:28.457Z,57.54
2023-05-15T03:40:01.554Z,57.96
2023-05-15T03:42:32.478Z,58.26
2023-05-15T03:45:03.466Z,57.62
2023-05-15T03:47:34.334Z,57.60
2023-05-15T03:50:05.442Z,57.64
2023-05-15T03:52:37.834Z,57.58
2023-05-15T03:55:10.572Z,57.64
2023-05-15T03:57:44.952Z,57.46
2023-05-15T04:00:17.708Z,57.55
2023-05-15T04:02:51.775Z,57.48
2023-05-15T04:05:24.810Z,57.15
2023-05-15T04:07:55.852Z,57.67
2023-05-15T04:10:26.923Z,57.67
2023-05-15T04:12:57.501Z,57.30
2023-05-15T04:15:31.397Z,57.00
2023-05-15T04:18:02.612Z,56.83
2023-05-15T04:20:34.043Z,56.87
2023-05-15T04:23:07.107Z,56.55
2023-05-15T04:25:37.937Z,56.63
2023-05-15T04:28:09.568Z,56.59
2023-05-15T04:30:40.741Z,56.38
2023-05-15T04:33:12.091Z,56.61
2023-05-15T04:35:44.154Z,56.02
2023-05-15T04:38:15.306Z,56.43
2023-05-15T04:40:47.695Z,56.22
2023-05-15T04:43:18.909Z,56.00
2023-05-15T04:45:50.128Z,56.02
2023-05-15T04:48:22.144Z,55.62
2023-05-15T04:50:54.264Z,55.71
2023-05-15T04:53:25.368Z,56.04
2023-05-15T04:55:56.607Z,55.35
2023-05-15T04:58:27.656Z,55.44
2023-05-15T05:00:58.442Z,55.32
2023-05-15T05:03:30.108Z,55.12
2023-05-15T05:06:01.949Z,55.26
2023-05-15T05:08:32.903Z,55.53
2023-05-15T05:11:03.889Z,55.34
2023-05-15T05:13:35.587Z,55.50
2023-05-15T05:16:06.858Z,55.37
2023-05-15T05:18:37.562Z,55.64
2023-05-15T05:21:09.682Z,55.78
2023-05-15T05:23:42.417Z,55.64
2023-05-15T05:26:13.948Z,55.86
2023-05-15T05:28:45.151Z,55.91
2023-05-15T05:31:15.996Z,55.89
2023-05-15T05:33:47.139Z,56.00
2023-05-15T05:36:17.702Z,56.00
2023-05-15T05:38:49.729Z,55.75
2023-05-15T05:41:20.840Z,55.66
2023-05-15T05:43:53.544Z,55.41
2023-05-15T05:46:24.447Z,55.47
2023-05-15T05:48:55.477Z,55.83
2023-05-15T05:51:26.708Z,55.36
2023-05-15T05:53:57.760Z,55.57
2023-05-15T05:56:29.556Z,55.29
2023-05-15T05:59:02.692Z,55.28
2023-05-15T06:01:34.410Z,55.32
2023-05-15T06:04:05.944Z,55.31
2023-05-15T06:06:37.781Z,55.08
2023-05-15T06:09:08.915Z,55.04
2023-05-15T06:11:40.270Z,55.28
2023-05-15T06:14:11.528Z,55.08
2023-05-15T06:16:42.958Z,55.24
2023-05-15T06:19:14.516Z,55.14
2023-05-15T06:21:46.101Z,55.52
2023-05-15T06:24:19.206Z,55.42
2023-05-15T06:26:52.367Z,55.33
2023-05-15T06:29:23.411Z,55.53
2023-05-15T06:31:54.513Z,55.44
2023-05-15T06:34:25.458Z,55.32
2023-05-15T06:36:57.612Z,55.13
2023-05-15T06:39:28.708Z,55.28
2023-05-15T06:42:04.129Z,55.50
2023-05-15T06:44:35.049Z,55.13
2023-05-15T06:47:06.296Z,55.35
2023-05-15T06:49:37.165Z,54.99
2023-05-15T06:52:09.661Z,55.09
2023-05-15T06:54:42.850Z,54.71
2023-05-15T06:57:13.583Z,54.50
2023-05-15T06:59:43.918Z,54.66
2023-05-15T07:02:16.310Z,54.38
2023-05-15T07:04:47.042Z,54.55
2023-05-15T07:07:20.189Z,55.05
2023-05-15T07:09:55.285Z,55.07
2023-05-15T07:12:25.709Z,54.98
2023-05-15T07:14:56.103Z,55.15
2023-05-15T07:17:28.746Z,55.64
2023-05-15T07:19:59.727Z,55.67
2023-05-15T07:22:32.785Z,55.50
2023-05-15T07:25:05.226Z,55.92
2023-05-15T07:27:36.915Z,55.66
2023-05-15T07:30:07.926Z,55.86
2023-05-15T07:32:39.784Z,56.07
2023-05-15T07:35:11.304Z,55.64
2023-05-15T07:37:43.327Z,55.75
2023-05-15T07:40:16.788Z,56.12
2023-05-15T07:42:48.479Z,55.89
2023-05-15T07:45:19.212Z,55.35
2023-05-15T07:47:52.270Z,55.28
2023-05-15T07:50:24.350Z,55.16
2023-05-15T07:52:55.301Z,55.27
2023-05-15T07:55:25.733Z,55.20
2023-05-15T07:57:56.210Z,55.46
2023-05-15T08:00:31.498Z,55.10
2023-05-15T08:03:03.695Z,55.56
2023-05-15T08:05:34.800Z,55.14
2023-05-15T08:08:05.669Z,55.49
2023-05-15T08:10:39.522Z,55.36
2023-05-15T08:13:10.168Z,55.59
2023-05-15T08:15:40.342Z,55.79
2023-05-15T08:18:16.672Z,56.00
2023-05-15T08:23:29.066Z,55.46
2023-05-15T08:25:59.424Z,55.49
2023-05-15T08:28:29.800Z,55.04
2023-05-15T08:31:03.471Z,54.70
2023-05-15T08:33:34.519Z,54.98
2023-05-15T08:36:04.914Z,54.92
2023-05-15T08:38:35.658Z,53.95
2023-05-15T08:41:21.369Z,53.70
2023-05-15T08:43:58.989Z,53.47
2023-05-15T08:46:32.896Z,53.27
2023-05-15T08:49:09.050Z,53.10
2023-05-15T08:51:39.804Z,52.68
2023-05-15T08:54:12.890Z,53.59
2023-05-15T08:56:44.720Z,53.25
2023-05-15T08:59:15.850Z,52.48
2023-05-15T09:01:46.494Z,52.28
2023-05-15T09:04:16.950Z,52.21
2023-05-15T09:06:49.458Z,51.92
2023-05-15T09:09:22.829Z,51.69
2023-05-15T09:11:54.334Z,52.17
2023-05-15T09:14:24.838Z,51.97
2023-05-15T09:16:55.855Z,51.74
2023-05-15T09:19:26.313Z,51.86
2023-05-15T09:21:56.763Z,51.89
2023-05-15T09:24:30.686Z,52.06
2023-05-15T09:27:11.507Z,51.79
2023-05-15T09:29:42.401Z,51.89
2023-05-15T09:32:14.500Z,52.37
2023-05-15T09:34:47.324Z,52.11
2023-05-15T09:37:37.625Z,52.26
2023-05-15T09:40:16.396Z,52.41
2023-05-15T09:42:55.269Z,52.53
2023-05-15T09:45:32.120Z,52.58
2023-05-15T09:48:07.071Z,52.63
2023-05-15T09:50:43.330Z,52.44
2023-05-15T09:53:21.507Z,52.49
2023-05-15T09:55:54.592Z,52.68
2023-05-15T09:58:25.746Z,52.66
2023-05-15T10:00:55.872Z,52.86
2023-05-15T10:03:26.234Z,52.90
2023-05-15T10:06:03.778Z,52.97
2023-05-15T10:08:34.238Z,52.67
2023-05-15T10:11:04.880Z,53.16
2023-05-15T10:13:38.623Z,53.12
2023-05-15T10:16:09.428Z,53.08
2023-05-15T10:18:42.932Z,53.15
2023-05-15T10:21:14.726Z,53.29
2023-05-15T10:23:46.326Z,53.61
2023-05-15T10:26:33.390Z,53.95
2023-05-15T10:29:04.904Z,53.98
2023-05-15T10:31:38.764Z,54.04
2023-05-15T10:34:10.443Z,53.92
2023-05-15T10:36:41.257Z,54.08
2023-05-15T10:39:11.712Z,54.25
2023-05-15T10:41:43.312Z,54.68
2023-05-15T10:44:14.390Z,54.63
2023-05-15T10:46:45.105Z,54.65
2023-05-15T10:49:15.627Z,54.79
2023-05-15T10:51:46.568Z,54.78
2023-05-15T10:54:18.088Z,55.09
2023-05-15T10:56:49.981Z,55.15
2023-05-15T10:59:21.558Z,55.42
2023-05-15T11:01:51.789Z,55.40
2023-05-15T11:04:25.343Z,55.53
2023-05-15T11:07:18.144Z,55.68
2023-05-15T11:09:48.351Z,55.70
2023-05-15T11:12:19.160Z,55.80
2023-05-15T11:14:58.339Z,55.72
2023-05-15T11:17:29.623Z,56.07
2023-05-15T11:20:02.162Z,55.92
2023-05-15T11:22:41.161Z,55.96
2023-05-15T11:25:14.935Z,55.93
2023-05-15T11:27:46.983Z,56.09
2023-05-15T11:30:28.965Z,56.25
2023-05-15T11:33:04.844Z,56.29
2023-05-15T11:35:42.469Z,56.29
2023-05-15T11:38:12.711Z,56.50
2023-05-15T11:41:00.910Z,56.72
2023-05-15T11:43:36.753Z,57.20
2023-05-15T11:46:12.985Z,57.82
2023-05-15T11:48:44.692Z,57.70
2023-05-15T11:51:28.313Z,58.16
2023-05-15T11:53:59.631Z,58.04
2023-05-15T11:56:31.019Z,58.53
2023-05-15T11:59:03.545Z,58.66
2023-05-15T12:01:49.803Z,58.89
2023-05-15T12:04:21.626Z,58.94
2023-05-15T12:06:52.568Z,59.10
2023-05-15T12:09:25.037Z,59.06
2023-05-15T12:11:56.225Z,59.48
2023-05-15T12:14:33.793Z,59.05
2023-05-15T12:17:06.955Z,59.22
2023-05-15T12:19:38.429Z,59.12
2023-05-15T12:22:10.339Z,59.44
2023-05-15T12:24:42.319Z,59.33
2023-05-15T12:27:14.361Z,59.35
2023-05-15T12:29:45.685Z,59.54
2023-05-15T12:32:16.175Z,59.79
2023-05-15T12:34:46.670Z,59.64
2023-05-15T12:37:17.797Z,59.28
2023-05-15T12:40:03.192Z,59.11
2023-05-15T12:42:37.184Z,59.37
2023-05-15T12:45:21.543Z,59.52
2023-05-15T12:47:53.516Z,59.32
2023-05-15T12:50:28.085Z,58.73
2023-05-15T12:53:00.097Z,58.71
2023-05-15T12:55:35.068Z,58.94
2023-05-15T12:58:18.092Z,58.70
2023-05-15T13:00:50.356Z,58.38
2023-05-15T13:03:24.282Z,58.78
2023-05-15T13:05:54.920Z,58.87
2023-05-15T13:08:25.546Z,59.32
2023-05-15T13:11:00.219Z,59.19
2023-05-15T13:14:03.058Z,59.28
2023-05-15T13:16:33.663Z,59.66
2023-05-15T13:19:03.818Z,59.96
2023-05-15T13:21:34.255Z,59.73
2023-05-15T13:24:04.607Z,59.75
2023-05-15T13:26:35.056Z,59.62
2023-05-15T13:29:05.561Z,59.73
2023-05-15T13:31:36.312Z,59.98
2023-05-15T13:34:06.714Z,59.88
2023-05-15T13:36:37.000Z,60.27
2023-05-15T13:39:08.055Z,60.20
2023-05-15T13:41:40.240Z,60.22
2023-05-15T13:44:10.461Z,60.72
2023-05-15T13:46:41.056Z,60.96
2023-05-15T13:49:13.560Z,61.13
2023-05-15T13:51:44.087Z,61.47
2023-05-15T13:54:14.289Z,61.51
2023-05-15T13:56:44.856Z,60.94
2023-05-15T13:59:15.242Z,60.35
2023-05-15T14:01:45.766Z,60.18
2023-05-15T14:04:16.211Z,60.16
2023-05-15T14:19:35.631Z,58.91
2023-05-15T14:22:07.638Z,58.79
2023-05-15T14:24:38.218Z,58.71
2023-05-15T14:27:08.669Z,58.75
2023-05-15T14:29:39.196Z,58.57
2023-05-15T14:32:10.101Z,58.44
2023-05-15T14:34:40.578Z,58.73
2023-05-15T14:37:11.331Z,58.21
2023-05-15T14:39:42.406Z,58.10
2023-05-15T14:42:14.562Z,57.81
2023-05-15T14:44:44.720Z,57.89
2023-05-15T14:47:16.230Z,57.91
2023-05-15T14:49:47.071Z,58.13
2023-05-15T14:52:17.352Z,58.25
2023-05-15T14:54:56.969Z,58.29
2023-05-15T14:57:31.305Z,58.58
2023-05-15T15:00:01.757Z,58.40
2023-05-15T15:02:32.134Z,58.42
2023-05-15T15:05:02.495Z,58.50
2023-05-15T15:07:34.695Z,58.65
2023-05-15T15:10:04.828Z,58.66
2023-05-15T15:12:34.979Z,58.56
2023-05-15T15:15:07.772Z,58.48
2023-05-15T15:17:38.079Z,58.15
2023-05-15T15:20:08.968Z,58.37
2023-05-15T15:22:39.316Z,58.03
2023-05-15T15:25:09.985Z,58.06
2023-05-15T15:27:40.767Z,57.81
2023-05-15T15:30:12.264Z,57.73
2023-05-15T15:32:43.425Z,57.77
2023-05-15T15:35:13.426Z,57.98
2023-05-15T15:37:43.654Z,57.83
2023-05-15T15:40:14.553Z,57.79
2023-05-15T15:42:44.769Z,57.86
2023-05-15T15:45:15.037Z,57.60
2023-05-15T15:47:45.440Z,57.52
2023-05-15T15:50:15.689Z,57.44
2023-05-15T15:52:46.041Z,57.71
2023-05-15T15:55:16.673Z,57.91
2023-05-15T15:57:48.602Z,58.12
2023-05-15T16:00:19.922Z,58.18
2023-05-15T16:02:50.342Z,57.95
2023-05-15T16:05:20.730Z,57.77
2023-05-15T16:07:51.285Z,57.89
2023-05-15T16:10:21.690Z,57.76
2023-05-15T16:12:53.585Z,57.69
2023-05-15T16:15:24.344Z,57.95
2023-05-15T16:17:55.436Z,57.83
2023-05-15T16:20:26.682Z,57.84
2023-05-15T16:22:57.215Z,57.79
2023-05-15T16:25:27.627Z,57.46
2023-05-15T16:27:57.842Z,57.35
2023-05-15T16:30:40.120Z,57.79
2023-05-15T16:33:15.087Z,57.48
2023-05-15T16:35:45.365Z,57.35
2023-05-15T16:38:16.675Z,57.08
2023-05-15T16:40:47.062Z,57.33
2023-05-15T16:43:17.889Z,57.48
2023-05-15T16:45:48.665Z,57.56
2023-05-15T16:48:19.003Z,57.58
2023-05-15T16:50:49.230Z,57.51
2023-05-15T16:53:20.067Z,57.56
2023-05-15T16:55:50.287Z,57.58
2023-05-15T16:58:20.806Z,57.45
2023-05-15T17:00:51.301Z,57.25
2023-05-15T17:03:22.118Z,57.38
2023-05-15T17:05:52.441Z,57.44
2023-05-15T17:08:22.925Z,57.36
2023-05-15T17:10:53.465Z,57.32
2023-05-15T17:13:25.914Z,57.19
2023-05-15T17:15:57.396Z,57.33
2023-05-15T17:18:28.030Z,57.21
2023-05-15T17:20:58.320Z,57.50
2023-05-15T17:23:28.896Z,57.34
2023-05-15T17:25:59.248Z,57.45
2023-05-15T17:28:29.610Z,57.35
2023-05-15T17:30:59.800Z,57.44
2023-05-15T17:33:30.147Z,57.42
2023-05-15T17:36:00.296Z,57.39
2023-05-15T17:38:30.633Z,57.71
2023-05-15T17:41:00.934Z,57.61
2023-05-15T17:43:31.171Z,57.53
2023-05-15T17:46:02.746Z,57.44
2023-05-15T17:48:33.171Z,57.49
2023-05-15T17:51:04.016Z,57.65
2023-05-15T17:53:34.613Z,57.40
2023-05-15T17:56:06.131Z,57.58
2023-05-15T17:58:36.428Z,57.57
2023-05-15T18:01:06.782Z,57.62
2023-05-15T18:03:38.432Z,57.73
2023-05-15T18:06:10.893Z,57.75
2023-05-15T18:08:41.394Z,57.90
2023-05-15T18:11:21.507Z,57.98
2023-05-15T18:13:52.969Z,57.91
2023-05-15T18:16:23.698Z,57.95
2023-05-15T18:18:54.573Z,58.01
2023-05-15T18:21:25.110Z,58.12
2023-05-15T18:23:55.631Z,57.95
2023-05-15T18:26:26.153Z,57.99
2023-05-15T18:28:56.676Z,58.02
2023-05-15T18:31:26.955Z,58.17
2023-05-15T18:33:58.371Z,57.95
2023-05-15T18:36:30.482Z,58.06
2023-05-15T18:39:01.865Z,57.95
2023-05-15T18:41:32.215Z,58.21
2023-05-15T18:44:02.720Z,58.07
2023-05-15T18:46:34.223Z,58.15
2023-05-15T18:49:05.148Z,57.96
2023-05-15T18:51:38.204Z,57.92
2023-05-15T18:54:08.939Z,57.87
2023-05-15T18:56:40.528Z,57.99
2023-05-15T18:59:12.484Z,58.04
2023-05-15T19:01:42.962Z,58.22
2023-05-15T19:04:14.431Z,58.14
2023-05-15T19:06:52.821Z,57.99
2023-05-15T19:09:23.217Z,58.28
2023-05-15T19:11:54.818Z,58.23
2023-05-15T19:14:25.529Z,58.41
2023-05-15T19:16:56.129Z,58.44
2023-05-15T19:19:26.748Z,58.69
2023-05-15T19:21:57.209Z,58.83
2023-05-15T19:24:27.896Z,58.98
2023-05-15T19:26:58.211Z,58.92
2023-05-15T19:29:28.679Z,58.98
2023-05-15T19:31:59.024Z,59.22
2023-05-15T19:34:29.876Z,59.40
2023-05-15T19:37:00.370Z,59.35
2023-05-15T19:39:30.776Z,59.74
2023-05-15T19:42:00.932Z,59.65
2023-05-15T19:44:31.329Z,59.97
2023-05-15T19:47:02.624Z,60.31
2023-05-15T19:49:34.596Z,60.51
2023-05-15T19:52:04.873Z,60.65
2023-05-15T19:54:35.121Z,61.38
2023-05-15T19:57:05.683Z,61.47
2023-05-15T19:59:36.130Z,61.42
2023-05-15T20:02:08.263Z,61.77
2023-05-15T20:04:39.834Z,61.90
2023-05-15T20:07:10.205Z,61.95
2023-05-15T20:09:40.532Z,62.30
2023-05-15T20:12:10.980Z,62.29
2023-05-15T20:14:41.531Z,62.68
2023-05-15T20:17:11.799Z,62.81
2023-05-15T20:19:41.992Z,62.82
2023-05-15T20:22:12.259Z,62.87
2023-05-15T20:24:43.363Z,62.83
2023-05-15T20:27:13.852Z,62.92
2023-05-15T20:29:44.223Z,63.11
2023-05-15T20:32:15.679Z,63.21
2023-05-15T20:34:48.281Z,63.10
2023-05-15T20:37:18.871Z,63.25
2023-05-15T20:39:49.185Z,63.46
2023-05-15T20:42:19.717Z,63.11
2023-05-15T20:44:50.135Z,63.41
2023-05-15T20:47:22.999Z,63.30
2023-05-15T20:49:53.836Z,63.31
2023-05-15T20:52:24.353Z,63.25
2023-05-15T20:54:55.701Z,63.23
2023-05-15T20:57:25.998Z,63.16
2023-05-15T21:00:00.297Z,63.00
2023-05-15T21:02:30.622Z,62.81
2023-05-15T21:05:00.956Z,62.84
2023-05-15T21:07:31.979Z,62.84
2023-05-15T21:10:02.278Z,63.01
2023-05-15T21:12:34.941Z,62.71
2023-05-15T21:15:08.313Z,62.80
2023-05-15T21:17:38.601Z,62.57
2023-05-15T21:20:09.497Z,62.51
2023-05-15T21:22:40.132Z,62.77
2023-05-15T21:25:12.193Z,62.75
2023-05-15T21:27:43.004Z,62.61
2023-05-15T21:30:14.491Z,62.72
2023-05-15T21:32:44.516Z,62.60
2023-05-15T21:35:14.861Z,62.48
2023-05-15T21:37:45.223Z,62.62
2023-05-15T21:40:17.542Z,62.52
2023-05-15T21:42:48.356Z,62.52
2023-05-15T21:45:19.065Z,62.39
2023-05-15T21:47:49.689Z,62.42
2023-05-15T21:50:20.007Z,62.31
2023-05-15T21:52:53.275Z,62.57
2023-05-15T21:55:24.584Z,62.40
2023-05-15T21:57:54.911Z,62.39
2023-05-15T22:00:25.484Z,62.44
2023-05-15T22:02:56.113Z,62.49
2023-05-15T22:05:26.569Z,62.41
2023-05-15T22:07:57.195Z,62.43
2023-05-15T22:10:27.866Z,62.27
2023-05-15T22:13:01.291Z,62.27
2023-05-15T22:15:32.087Z,61.98
2023-05-15T22:18:02.850Z,62.24
2023-05-15T22:20:33.203Z,62.25
2023-05-15T22:23:03.507Z,62.86
2023-05-15T22:25:35.415Z,62.90
2023-05-15T22:28:06.006Z,62.88
2023-05-15T22:30:36.317Z,63.02
2023-05-15T22:33:07.163Z,63.03
2023-05-15T22:35:38.854Z,63.00
2023-05-15T22:38:09.861Z,63.12
2023-05-15T22:40:40.238Z,63.16
2023-05-15T22:43:26.705Z,62.88
2023-05-15T22:45:57.937Z,63.07
2023-05-15T22:48:28.450Z,62.88
2023-05-15T22:51:00.288Z,63.17
2023-05-15T22:53:31.571Z,63.02
2023-05-15T22:56:01.957Z,63.21
2023-05-15T22:58:32.383Z,63.17
2023-05-15T23:01:02.709Z,63.30
2023-05-15T23:03:32.956Z,63.15
2023-05-15T23:06:03.661Z,63.13
2023-05-15T23:08:33.936Z,63.30
2023-05-15T23:11:06.584Z,63.42
2023-05-15T23:13:36.884Z,63.35
2023-05-15T23:16:07.518Z,63.02
2023-05-15T23:18:38.877Z,63.14
2023-05-15T23:21:09.300Z,63.09
2023-05-15T23:23:39.525Z,62.98
2023-05-15T23:26:10.518Z,62.86
2023-05-15T23:28:40.826Z,62.92
2023-05-15T23:31:11.199Z,62.68
2023-05-15T23:33:41.648Z,62.58
2023-05-15T23:36:12.311Z,62.48
2023-05-15T23:38:42.920Z,62.46
2023-05-15T23:41:13.358Z,62.42
2023-05-15T23:43:43.807Z,62.53
2023-05-15T23:46:14.084Z,62.68
2023-05-15T23:48:44.494Z,62.74
2023-05-15T23:51:14.787Z,62.68
2023-05-15T23:53:45.085Z,62.57
2023-05-15T23:56:15.387Z,62.65
2023-05-15T23:58:45.747Z,62.80
